createdAt,value
2022-08-18T00:00:20.714Z,13.05
2022-08-18T00:05:23.989Z,12.30
2022-08-18T00:10:27.869Z,12.80
2022-08-18T00:15:32.242Z,14.45
2022-08-18T00:20:45.226Z,17.00
2022-08-18T00:25:50.274Z,14.48
2022-08-18T00:30:54.629Z,17.10
2022-08-18T00:35:57.729Z,13.70
2022-08-18T00:41:02.449Z,15.10
2022-08-18T00:46:09.167Z,15.25
2022-08-18T00:51:15.463Z,14.30
2022-08-18T00:56:24.713Z,17.25
2022-08-18T01:01:31.879Z,17.27
2022-08-18T01:06:42.120Z,14.30
2022-08-18T01:11:45.510Z,16.67
2022-08-18T01:17:09.258Z,22.05
2022-08-18T01:22:18.282Z,17.13
2022-08-18T01:27:23.457Z,19.08
2022-08-18T01:32:27.638Z,14.00
2022-08-18T01:37:30.825Z,16.57
2022-08-18T01:42:35.823Z,14.25
2022-08-18T01:52:53.779Z,14.63
2022-08-18T01:57:58.404Z,18.48
2022-08-18T02:08:07.067Z,15.40
2022-08-18T02:13:13.036Z,18.40
2022-08-18T02:18:25.730Z,19.77
2022-08-18T02:23:41.136Z,16.42
2022-08-18T02:28:57.452Z,21.52
2022-08-18T02:34:00.700Z,19.83
2022-08-18T02:39:04.012Z,19.80
2022-08-18T02:44:08.618Z,25.55
2022-08-18T02:49:12.796Z,23.90
2022-08-18T02:54:15.877Z,20.97
2022-08-18T02:59:26.461Z,22.60
2022-08-18T03:04:31.286Z,22.13
2022-08-18T03:09:35.603Z,23.40
2022-08-18T03:14:40.130Z,22.67
2022-08-18T03:19:45.032Z,28.25
2022-08-18T03:24:50.959Z,25.48
2022-08-18T03:29:55.900Z,21.13
2022-08-18T03:35:01.724Z,22.92
2022-08-18T03:40:05.807Z,22.95
2022-08-18T03:45:17.358Z,21.40
2022-08-18T03:50:21.855Z,22.50
2022-08-18T03:55:25.626Z,24.00
2022-08-18T04:00:31.693Z,23.20
2022-08-18T04:05:39.522Z,23.45
2022-08-18T04:10:44.074Z,22.55
2022-08-18T04:15:48.748Z,24.30
2022-08-18T04:20:58.951Z,24.65
2022-08-18T04:26:02.900Z,21.95
2022-08-18T04:31:09.235Z,26.83
2022-08-18T04:36:20.659Z,22.27
2022-08-18T04:41:27.630Z,22.35
2022-08-18T04:46:36.475Z,21.15
2022-08-18T04:52:37.012Z,20.13
2022-08-18T04:57:10.443Z,21.50
2022-08-18T05:02:16.335Z,20.90
2022-08-18T05:07:23.036Z,20.00
2022-08-18T05:12:26.812Z,20.55
2022-08-18T05:17:32.040Z,19.73
2022-08-18T05:22:39.214Z,17.95
2022-08-18T05:27:43.850Z,18.27
2022-08-18T05:32:50.296Z,19.88
2022-08-18T05:38:11.338Z,18.83
2022-08-18T05:43:16.326Z,19.20
2022-08-18T05:48:20.698Z,18.48
2022-08-18T05:53:43.786Z,16.48
2022-08-18T05:58:51.468Z,19.08
2022-08-18T06:04:01.121Z,17.75
2022-08-18T06:09:10.774Z,18.27
2022-08-18T06:14:13.940Z,21.77
2022-08-18T06:19:30.255Z,17.38
2022-08-18T06:24:38.633Z,16.48
2022-08-18T06:29:53.586Z,22.85
2022-08-18T06:35:18.294Z,17.73
2022-08-18T06:40:21.477Z,15.10
2022-08-18T06:45:33.909Z,18.35
2022-08-18T06:50:49.050Z,57.35
2022-08-18T06:55:52.225Z,59.15
2022-08-18T07:00:59.824Z,49.17
2022-08-18T07:06:08.101Z,18.60
2022-08-18T07:11:14.876Z,13.95
2022-08-18T07:16:54.960Z,13.43
2022-08-18T07:22:06.293Z,17.63
2022-08-18T07:27:11.185Z,15.23
2022-08-18T07:32:20.971Z,15.15
2022-08-18T07:37:32.488Z,17.38
2022-08-18T07:43:01.428Z,17.15
2022-08-18T07:48:36.614Z,14.77
2022-08-18T07:53:42.838Z,17.10
2022-08-18T07:59:04.795Z,14.60
2022-08-18T08:04:26.235Z,16.20
2022-08-18T08:09:38.157Z,16.40
2022-08-18T08:14:42.847Z,16.25
2022-08-18T08:20:21.412Z,15.25
2022-08-18T08:25:47.151Z,15.30
2022-08-18T08:31:19.121Z,15.25
2022-08-18T08:36:29.862Z,17.00
2022-08-18T08:41:40.106Z,17.00
2022-08-18T08:46:49.549Z,17.23
2022-08-18T08:51:57.975Z,20.38
2022-08-18T08:57:04.877Z,18.85
2022-08-18T09:02:46.843Z,15.23
2022-08-18T09:08:15.067Z,18.42
2022-08-18T09:13:51.064Z,20.63
2022-08-18T09:19:12.918Z,13.57
2022-08-18T09:24:23.745Z,17.20
2022-08-18T09:29:49.012Z,19.42
2022-08-18T09:35:13.107Z,18.45
2022-08-18T09:46:06.839Z,17.17
2022-08-18T09:51:34.104Z,17.60
2022-08-18T09:57:19.622Z,16.27
2022-08-18T10:03:10.356Z,15.32
2022-08-18T10:08:58.625Z,15.45
2022-08-18T10:14:18.250Z,17.50
2022-08-18T10:19:33.877Z,17.30
2022-08-18T10:24:53.934Z,18.08
2022-08-18T10:29:58.261Z,14.45
2022-08-18T10:35:01.828Z,13.80
2022-08-18T10:40:16.326Z,12.57
2022-08-18T10:45:28.264Z,10.52
2022-08-18T10:50:38.519Z,14.13
2022-08-18T10:55:50.178Z,15.65
2022-08-18T11:01:10.547Z,16.48
2022-08-18T11:06:21.564Z,13.70
2022-08-18T11:17:07.020Z,12.85
2022-08-18T11:27:48.418Z,12.68
2022-08-18T11:38:23.199Z,13.90
2022-08-18T11:43:40.717Z,12.30
2022-08-18T11:48:53.523Z,10.18
2022-08-18T11:54:00.607Z,12.52
2022-08-18T11:59:06.939Z,13.57
2022-08-18T12:04:22.208Z,14.65
2022-08-18T12:15:07.964Z,16.65
2022-08-18T12:20:17.394Z,14.50
2022-08-18T12:25:24.604Z,11.00
2022-08-18T12:30:29.881Z,13.70
2022-08-18T12:35:34.737Z,10.93
2022-08-18T12:40:38.300Z,12.25
2022-08-18T12:45:43.329Z,9.52
2022-08-18T12:50:54.234Z,10.57
2022-08-18T12:55:59.274Z,10.10
2022-08-18T13:01:04.791Z,9.02
2022-08-18T13:06:11.842Z,9.10
2022-08-18T13:11:23.707Z,10.60
2022-08-18T13:16:47.792Z,8.18
2022-08-18T13:21:57.313Z,9.80
2022-08-18T13:27:00.715Z,9.90
2022-08-18T13:32:09.444Z,8.40
2022-08-18T13:37:15.217Z,9.32
2022-08-18T13:42:26.766Z,15.40
2022-08-18T13:47:38.039Z,10.60
2022-08-18T13:52:44.693Z,9.40
2022-08-18T13:57:50.704Z,12.85
2022-08-18T14:03:02.171Z,9.32
2022-08-18T14:08:06.814Z,10.65
2022-08-18T14:13:21.289Z,11.98
2022-08-18T14:18:30.681Z,9.68
2022-08-18T14:23:53.292Z,10.85
2022-08-18T14:28:56.890Z,15.18
2022-08-18T14:34:04.898Z,12.15
2022-08-18T14:54:17.823Z,8.73
2022-08-18T14:59:23.132Z,13.02
2022-08-18T15:04:27.655Z,9.93
2022-08-18T15:09:32.169Z,10.32
2022-08-18T15:59:52.973Z,7.50
2022-08-18T16:04:56.007Z,8.27
2022-08-18T16:10:01.313Z,8.40
2022-08-18T16:15:07.727Z,7.35
2022-08-18T16:20:12.191Z,9.07
2022-08-18T16:25:16.459Z,12.07
2022-08-18T16:38:20.441Z,8.18
2022-08-18T16:43:23.695Z,12.93
2022-08-18T16:53:39.836Z,11.90
2022-08-18T16:59:03.151Z,11.88
2022-08-18T17:04:13.630Z,11.35
2022-08-18T17:09:26.308Z,13.30
2022-08-18T17:14:31.406Z,8.80
2022-08-18T17:19:35.542Z,9.77
2022-08-18T17:24:49.496Z,9.13
2022-08-18T17:35:07.000Z,12.30
2022-08-18T17:40:16.904Z,13.23
2022-08-18T17:45:22.039Z,8.95
2022-08-18T17:50:49.464Z,10.35
2022-08-18T17:56:00.013Z,10.82
2022-08-18T18:01:04.216Z,11.55
2022-08-18T18:06:11.216Z,11.88
2022-08-18T18:11:15.795Z,13.20
2022-08-18T18:16:23.547Z,10.18
2022-08-18T18:22:00.504Z,10.27
2022-08-18T18:26:52.305Z,12.43
2022-08-18T18:32:00.832Z,10.57
2022-08-18T18:37:04.185Z,10.35
2022-08-18T18:42:18.076Z,11.45
2022-08-18T18:47:45.746Z,12.07
2022-08-18T18:53:00.239Z,12.10
2022-08-18T18:58:16.362Z,10.95
2022-08-18T19:03:24.556Z,11.52
2022-08-18T19:08:39.603Z,12.10
2022-08-18T19:13:53.474Z,10.35
2022-08-18T19:19:37.707Z,12.35
2022-08-18T19:24:25.796Z,12.00
2022-08-18T19:29:34.834Z,17.17
2022-08-18T19:34:51.664Z,12.60
2022-08-18T19:40:09.348Z,14.02
2022-08-18T19:45:24.783Z,11.80
2022-08-18T19:50:33.583Z,11.52
2022-08-18T19:55:51.775Z,13.00
2022-08-18T20:01:00.269Z,13.00
2022-08-18T20:06:33.592Z,13.77
2022-08-18T20:11:56.102Z,11.18
2022-08-18T20:17:18.279Z,11.65
2022-08-18T20:22:34.104Z,9.85
2022-08-18T20:27:39.689Z,10.57
2022-08-18T20:32:44.262Z,10.27
2022-08-18T20:43:06.799Z,9.60
2022-08-18T20:48:32.705Z,10.43
2022-08-18T20:53:57.786Z,11.20
2022-08-18T20:59:08.529Z,10.90
2022-08-18T21:04:13.444Z,11.38
2022-08-18T21:09:18.661Z,11.07
2022-08-18T21:14:25.464Z,10.77
2022-08-18T21:19:40.836Z,10.63
2022-08-18T21:24:49.886Z,11.70
2022-08-18T21:29:54.504Z,11.85
2022-08-18T21:35:09.978Z,13.40
2022-08-18T21:40:14.470Z,13.98
2022-08-18T21:45:23.377Z,11.90
2022-08-18T21:50:30.134Z,15.02
2022-08-18T21:55:37.291Z,14.10
2022-08-18T22:00:43.248Z,13.65
2022-08-18T22:05:58.874Z,15.25
2022-08-18T22:11:59.856Z,15.15
2022-08-18T22:17:24.466Z,11.35
2022-08-18T22:22:49.285Z,13.75
2022-08-18T22:27:53.576Z,24.02
2022-08-18T22:32:56.651Z,19.88
2022-08-18T22:38:01.628Z,17.00
2022-08-18T22:43:05.035Z,17.00
2022-08-18T22:48:08.085Z,18.77
2022-08-18T22:53:13.627Z,18.05
2022-08-18T22:58:22.089Z,18.13
2022-08-18T23:03:31.341Z,22.15
2022-08-18T23:08:55.097Z,23.23
2022-08-18T23:14:02.217Z,19.63
2022-08-18T23:19:05.510Z,22.67
2022-08-18T23:24:12.565Z,26.70
2022-08-18T23:29:16.061Z,21.15
2022-08-18T23:34:24.421Z,23.63
2022-08-18T23:39:31.417Z,26.15
2022-08-18T23:44:34.515Z,26.77
2022-08-18T23:49:38.250Z,32.03
2022-08-18T23:54:42.741Z,25.73
2022-08-18T23:59:45.843Z,25.02
